sensor_id;sensor_type;location;lat;lon;timestamp;temperature;humidity
75683;HTU21D;64295;44.772;39.872;2024-02-21T00:00:26;2.38;67.53
75683;HTU21D;64295;44.772;39.872;2024-02-21T00:02:52;2.31;67.65
75683;HTU21D;64295;44.772;39.872;2024-02-21T00:05:18;2.30;67.75
75683;HTU21D;64295;44.772;39.872;2024-02-21T00:07:44;2.37;67.68
75683;HTU21D;64295;44.772;39.872;2024-02-21T00:10:10;2.43;67.49
75683;HTU21D;64295;44.772;39.872;2024-02-21T00:12:36;2.45;67.41
75683;HTU21D;64295;44.772;39.872;2024-02-21T00:15:02;2.43;67.42
75683;HTU21D;64295;44.772;39.872;2024-02-21T00:17:28;2.41;67.52
75683;HTU21D;64295;44.772;39.872;2024-02-21T00:19:54;2.47;67.47
75683;HTU21D;64295;44.772;39.872;2024-02-21T00:22:20;2.51;67.36
75683;HTU21D;64295;44.772;39.872;2024-02-21T00:24:46;2.55;67.28
75683;HTU21D;64295;44.772;39.872;2024-02-21T00:27:12;2.56;67.25
75683;HTU21D;64295;44.772;39.872;2024-02-21T00:29:37;2.61;67.20
75683;HTU21D;64295;44.772;39.872;2024-02-21T00:32:04;2.62;67.13
75683;HTU21D;64295;44.772;39.872;2024-02-21T00:34:30;2.61;67.20
75683;HTU21D;64295;44.772;39.872;2024-02-21T00:36:56;2.64;67.17
75683;HTU21D;64295;44.772;39.872;2024-02-21T00:39:21;2.62;67.16
75683;HTU21D;64295;44.772;39.872;2024-02-21T00:41:47;2.59;67.28
75683;HTU21D;64295;44.772;39.872;2024-02-21T00:44:13;2.60;67.30
75683;HTU21D;64295;44.772;39.872;2024-02-21T00:46:39;2.59;67.31
75683;HTU21D;64295;44.772;39.872;2024-02-21T00:49:05;2.57;67.36
75683;HTU21D;64295;44.772;39.872;2024-02-21T00:51:31;2.55;67.37
75683;HTU21D;64295;44.772;39.872;2024-02-21T00:53:57;2.56;67.39
75683;HTU21D;64295;44.772;39.872;2024-02-21T00:56:22;2.59;67.32
75683;HTU21D;64295;44.772;39.872;2024-02-21T00:58:48;2.59;67.26
75683;HTU21D;64295;44.772;39.872;2024-02-21T01:01:21;2.56;67.33
75683;HTU21D;64295;44.772;39.872;2024-02-21T01:03:48;2.56;67.46
75683;HTU21D;64295;44.772;39.872;2024-02-21T01:06:15;2.57;67.37
75683;HTU21D;64295;44.772;39.872;2024-02-21T01:08:41;2.61;67.36
75683;HTU21D;64295;44.772;39.872;2024-02-21T01:11:07;2.65;67.26
75683;HTU21D;64295;44.772;39.872;2024-02-21T01:13:32;2.66;67.26
75683;HTU21D;64295;44.772;39.872;2024-02-21T01:15:59;2.69;67.21
75683;HTU21D;64295;44.772;39.872;2024-02-21T01:18:24;2.72;67.19
75683;HTU21D;64295;44.772;39.872;2024-02-21T01:20:51;2.73;67.16
75683;HTU21D;64295;44.772;39.872;2024-02-21T01:23:17;2.74;67.17
75683;HTU21D;64295;44.772;39.872;2024-02-21T01:25:43;2.72;67.20
75683;HTU21D;64295;44.772;39.872;2024-02-21T01:28:09;2.73;67.20
75683;HTU21D;64295;44.772;39.872;2024-02-21T01:30:35;2.74;67.23
75683;HTU21D;64295;44.772;39.872;2024-02-21T01:33:01;2.78;67.17
75683;HTU21D;64295;44.772;39.872;2024-02-21T01:35:27;2.80;67.20
75683;HTU21D;64295;44.772;39.872;2024-02-21T01:37:53;2.81;67.15
75683;HTU21D;64295;44.772;39.872;2024-02-21T01:40:18;2.84;67.10
75683;HTU21D;64295;44.772;39.872;2024-02-21T01:42:44;2.85;67.14
75683;HTU21D;64295;44.772;39.872;2024-02-21T01:45:10;2.86;67.07
75683;HTU21D;64295;44.772;39.872;2024-02-21T01:47:37;2.86;67.09
75683;HTU21D;64295;44.772;39.872;2024-02-21T01:50:03;2.81;67.15
75683;HTU21D;64295;44.772;39.872;2024-02-21T01:52:30;2.76;67.27
75683;HTU21D;64295;44.772;39.872;2024-02-21T01:54:57;2.79;67.27
75683;HTU21D;64295;44.772;39.872;2024-02-21T01:57:24;2.79;67.29
75683;HTU21D;64295;44.772;39.872;2024-02-21T01:59:50;2.79;67.25
75683;HTU21D;64295;44.772;39.872;2024-02-21T02:02:16;2.76;67.36
75683;HTU21D;64295;44.772;39.872;2024-02-21T02:04:43;2.76;67.36
75683;HTU21D;64295;44.772;39.872;2024-02-21T02:07:10;2.74;67.40
75683;HTU21D;64295;44.772;39.872;2024-02-21T02:09:36;2.74;67.39
75683;HTU21D;64295;44.772;39.872;2024-02-21T02:12:02;2.72;67.42
75683;HTU21D;64295;44.772;39.872;2024-02-21T02:14:28;2.72;67.40
75683;HTU21D;64295;44.772;39.872;2024-02-21T02:16:54;2.67;67.49
75683;HTU21D;64295;44.772;39.872;2024-02-21T02:19:20;2.62;67.59
75683;HTU21D;64295;44.772;39.872;2024-02-21T02:21:49;2.61;67.62
75683;HTU21D;64295;44.772;39.872;2024-02-21T02:24:24;2.59;67.65
75683;HTU21D;64295;44.772;39.872;2024-02-21T02:26:57;2.60;67.67
75683;HTU21D;64295;44.772;39.872;2024-02-21T02:33:17;2.58;67.63
75683;HTU21D;64295;44.772;39.872;2024-02-21T02:35:53;2.59;67.53
75683;HTU21D;64295;44.772;39.872;2024-02-21T02:38:45;2.58;67.55
75683;HTU21D;64295;44.772;39.872;2024-02-21T02:41:11;2.54;67.58
75683;HTU21D;64295;44.772;39.872;2024-02-21T02:43:37;2.52;67.64
75683;HTU21D;64295;44.772;39.872;2024-02-21T02:46:03;2.50;67.69
75683;HTU21D;64295;44.772;39.872;2024-02-21T02:48:30;2.52;67.70
75683;HTU21D;64295;44.772;39.872;2024-02-21T02:50:55;2.53;67.64
75683;HTU21D;64295;44.772;39.872;2024-02-21T02:53:21;2.52;67.65
75683;HTU21D;64295;44.772;39.872;2024-02-21T02:55:47;2.56;67.63
75683;HTU21D;64295;44.772;39.872;2024-02-21T02:58:13;2.60;67.50
75683;HTU21D;64295;44.772;39.872;2024-02-21T03:03:48;2.64;67.43
75683;HTU21D;64295;44.772;39.872;2024-02-21T03:06:14;2.64;67.51
75683;HTU21D;64295;44.772;39.872;2024-02-21T03:08:40;2.64;67.44
75683;HTU21D;64295;44.772;39.872;2024-02-21T03:11:06;2.64;67.48
75683;HTU21D;64295;44.772;39.872;2024-02-21T03:13:32;2.65;67.46
75683;HTU21D;64295;44.772;39.872;2024-02-21T03:15:58;2.68;67.43
75683;HTU21D;64295;44.772;39.872;2024-02-21T03:18:24;2.75;67.36
75683;HTU21D;64295;44.772;39.872;2024-02-21T03:20:50;2.81;67.27
75683;HTU21D;64295;44.772;39.872;2024-02-21T03:23:16;2.80;67.27
75683;HTU21D;64295;44.772;39.872;2024-02-21T03:25:42;2.83;67.30
75683;HTU21D;64295;44.772;39.872;2024-02-21T03:28:07;2.86;67.29
75683;HTU21D;64295;44.772;39.872;2024-02-21T03:30:33;2.88;67.24
75683;HTU21D;64295;44.772;39.872;2024-02-21T03:32:59;2.89;67.24
75683;HTU21D;64295;44.772;39.872;2024-02-21T03:35:26;2.86;67.31
75683;HTU21D;64295;44.772;39.872;2024-02-21T03:37:53;2.84;67.36
75683;HTU21D;64295;44.772;39.872;2024-02-21T03:40:19;2.85;67.43
75683;HTU21D;64295;44.772;39.872;2024-02-21T03:42:46;2.87;67.35
75683;HTU21D;64295;44.772;39.872;2024-02-21T03:45:12;2.88;67.39
75683;HTU21D;64295;44.772;39.872;2024-02-21T03:47:38;2.88;67.41
75683;HTU21D;64295;44.772;39.872;2024-02-21T03:50:06;2.89;67.41
75683;HTU21D;64295;44.772;39.872;2024-02-21T03:52:32;2.94;67.39
75683;HTU21D;64295;44.772;39.872;2024-02-21T03:54:58;2.96;67.30
75683;HTU21D;64295;44.772;39.872;2024-02-21T03:57:24;2.98;67.31
75683;HTU21D;64295;44.772;39.872;2024-02-21T03:59:50;2.95;67.34
75683;HTU21D;64295;44.772;39.872;2024-02-21T04:02:17;2.87;67.46
75683;HTU21D;64295;44.772;39.872;2024-02-21T04:04:44;2.85;67.54
75683;HTU21D;64295;44.772;39.872;2024-02-21T04:07:16;2.80;67.63
75683;HTU21D;64295;44.772;39.872;2024-02-21T04:09:47;2.74;67.72
75683;HTU21D;64295;44.772;39.872;2024-02-21T04:12:13;2.70;67.78
75683;HTU21D;64295;44.772;39.872;2024-02-21T04:14:39;2.70;67.81
75683;HTU21D;64295;44.772;39.872;2024-02-21T04:17:05;2.70;67.78
75683;HTU21D;64295;44.772;39.872;2024-02-21T04:19:31;2.70;67.77
75683;HTU21D;64295;44.772;39.872;2024-02-21T04:21:57;2.70;67.78
75683;HTU21D;64295;44.772;39.872;2024-02-21T04:24:23;2.65;67.81
75683;HTU21D;64295;44.772;39.872;2024-02-21T04:26:49;2.64;67.84
75683;HTU21D;64295;44.772;39.872;2024-02-21T04:29:16;2.66;67.83
75683;HTU21D;64295;44.772;39.872;2024-02-21T04:31:42;2.68;67.78
75683;HTU21D;64295;44.772;39.872;2024-02-21T04:34:10;2.71;67.71
75683;HTU21D;64295;44.772;39.872;2024-02-21T04:36:36;2.74;67.65
75683;HTU21D;64295;44.772;39.872;2024-02-21T04:39:03;2.74;67.59
75683;HTU21D;64295;44.772;39.872;2024-02-21T04:41:30;2.73;67.63
75683;HTU21D;64295;44.772;39.872;2024-02-21T04:43:56;2.71;67.62
75683;HTU21D;64295;44.772;39.872;2024-02-21T04:46:22;2.68;67.64
75683;HTU21D;64295;44.772;39.872;2024-02-21T04:48:51;2.64;67.74
75683;HTU21D;64295;44.772;39.872;2024-02-21T04:51:20;2.57;67.79
75683;HTU21D;64295;44.772;39.872;2024-02-21T04:53:46;2.52;67.93
75683;HTU21D;64295;44.772;39.872;2024-02-21T04:56:12;2.51;67.96
75683;HTU21D;64295;44.772;39.872;2024-02-21T04:58:39;2.51;67.96
75683;HTU21D;64295;44.772;39.872;2024-02-21T05:01:05;2.55;67.91
75683;HTU21D;64295;44.772;39.872;2024-02-21T05:03:31;2.55;67.82
75683;HTU21D;64295;44.772;39.872;2024-02-21T05:05:58;2.55;67.79
75683;HTU21D;64295;44.772;39.872;2024-02-21T05:08:24;2.59;67.80
75683;HTU21D;64295;44.772;39.872;2024-02-21T05:10:51;2.61;67.68
75683;HTU21D;64295;44.772;39.872;2024-02-21T05:13:17;2.65;67.62
75683;HTU21D;64295;44.772;39.872;2024-02-21T05:15:44;2.68;67.55
75683;HTU21D;64295;44.772;39.872;2024-02-21T05:18:10;2.72;67.52
75683;HTU21D;64295;44.772;39.872;2024-02-21T05:20:36;2.74;67.43
75683;HTU21D;64295;44.772;39.872;2024-02-21T05:23:02;2.75;67.47
75683;HTU21D;64295;44.772;39.872;2024-02-21T05:25:28;2.72;67.46
75683;HTU21D;64295;44.772;39.872;2024-02-21T05:27:54;2.74;67.44
75683;HTU21D;64295;44.772;39.872;2024-02-21T05:30:21;2.73;67.46
75683;HTU21D;64295;44.772;39.872;2024-02-21T05:32:47;2.75;67.44
75683;HTU21D;64295;44.772;39.872;2024-02-21T05:35:13;2.78;67.46
75683;HTU21D;64295;44.772;39.872;2024-02-21T05:37:39;2.81;67.41
75683;HTU21D;64295;44.772;39.872;2024-02-21T05:40:05;2.90;67.41
75683;HTU21D;64295;44.772;39.872;2024-02-21T05:42:32;2.94;67.16
75683;HTU21D;64295;44.772;39.872;2024-02-21T05:44:58;2.86;67.33
75683;HTU21D;64295;44.772;39.872;2024-02-21T05:47:24;2.85;67.41
75683;HTU21D;64295;44.772;39.872;2024-02-21T05:49:50;2.88;67.36
75683;HTU21D;64295;44.772;39.872;2024-02-21T05:52:19;2.91;67.30
75683;HTU21D;64295;44.772;39.872;2024-02-21T05:54:45;2.98;67.25
75683;HTU21D;64295;44.772;39.872;2024-02-21T05:57:10;3.01;67.14
75683;HTU21D;64295;44.772;39.872;2024-02-21T05:59:39;3.06;67.08
75683;HTU21D;64295;44.772;39.872;2024-02-21T06:02:07;3.13;67.02
75683;HTU21D;64295;44.772;39.872;2024-02-21T06:04:33;3.17;66.92
75683;HTU21D;64295;44.772;39.872;2024-02-21T06:06:59;3.21;66.90
75683;HTU21D;64295;44.772;39.872;2024-02-21T06:09:26;3.24;66.86
75683;HTU21D;64295;44.772;39.872;2024-02-21T06:11:52;3.25;66.87
75683;HTU21D;64295;44.772;39.872;2024-02-21T06:14:19;3.24;66.98
75683;HTU21D;64295;44.772;39.872;2024-02-21T06:16:46;3.27;66.94
75683;HTU21D;64295;44.772;39.872;2024-02-21T06:19:12;3.27;66.97
75683;HTU21D;64295;44.772;39.872;2024-02-21T06:21:38;3.30;67.00
75683;HTU21D;64295;44.772;39.872;2024-02-21T06:24:04;3.35;66.98
75683;HTU21D;64295;44.772;39.872;2024-02-21T06:26:30;3.43;66.90
75683;HTU21D;64295;44.772;39.872;2024-02-21T06:28:56;3.44;66.85
75683;HTU21D;64295;44.772;39.872;2024-02-21T06:31:22;3.43;66.87
75683;HTU21D;64295;44.772;39.872;2024-02-21T06:33:48;3.42;67.06
75683;HTU21D;64295;44.772;39.872;2024-02-21T06:36:14;3.49;67.04
75683;HTU21D;64295;44.772;39.872;2024-02-21T06:38:40;3.54;66.92
75683;HTU21D;64295;44.772;39.872;2024-02-21T06:41:06;3.65;66.90
75683;HTU21D;64295;44.772;39.872;2024-02-21T06:43:32;3.75;66.62
75683;HTU21D;64295;44.772;39.872;2024-02-21T06:45:59;3.72;66.64
75683;HTU21D;64295;44.772;39.872;2024-02-21T06:48:27;3.67;66.88
75683;HTU21D;64295;44.772;39.872;2024-02-21T06:50:54;3.65;66.91
75683;HTU21D;64295;44.772;39.872;2024-02-21T06:53:20;3.71;66.91
75683;HTU21D;64295;44.772;39.872;2024-02-21T06:55:46;3.80;66.80
75683;HTU21D;64295;44.772;39.872;2024-02-21T06:58:12;3.86;66.76
75683;HTU21D;64295;44.772;39.872;2024-02-21T07:00:39;3.88;66.65
75683;HTU21D;64295;44.772;39.872;2024-02-21T07:03:06;3.93;66.73
75683;HTU21D;64295;44.772;39.872;2024-02-21T07:05:32;4.06;66.68
75683;HTU21D;64295;44.772;39.872;2024-02-21T07:07:58;4.22;66.48
75683;HTU21D;64295;44.772;39.872;2024-02-21T07:10:23;4.33;66.23
75683;HTU21D;64295;44.772;39.872;2024-02-21T07:12:49;4.21;66.37
75683;HTU21D;64295;44.772;39.872;2024-02-21T07:15:17;4.09;66.74
75683;HTU21D;64295;44.772;39.872;2024-02-21T07:17:44;4.01;66.93
75683;HTU21D;64295;44.772;39.872;2024-02-21T07:20:10;3.93;67.10
75683;HTU21D;64295;44.772;39.872;2024-02-21T07:22:36;3.92;67.26
75683;HTU21D;64295;44.772;39.872;2024-02-21T07:25:02;3.98;67.19
75683;HTU21D;64295;44.772;39.872;2024-02-21T07:27:28;3.99;67.09
75683;HTU21D;64295;44.772;39.872;2024-02-21T07:29:57;3.88;67.20
75683;HTU21D;64295;44.772;39.872;2024-02-21T07:32:23;3.88;67.36
75683;HTU21D;64295;44.772;39.872;2024-02-21T07:34:49;3.88;67.32
75683;HTU21D;64295;44.772;39.872;2024-02-21T07:37:14;3.95;67.33
75683;HTU21D;64295;44.772;39.872;2024-02-21T07:39:41;4.02;67.22
75683;HTU21D;64295;44.772;39.872;2024-02-21T07:42:07;4.09;67.08
75683;HTU21D;64295;44.772;39.872;2024-02-21T07:44:33;4.18;66.98
75683;HTU21D;64295;44.772;39.872;2024-02-21T07:47:00;4.15;66.99
75683;HTU21D;64295;44.772;39.872;2024-02-21T07:49:26;4.15;67.12
75683;HTU21D;64295;44.772;39.872;2024-02-21T07:51:52;4.08;67.20
75683;HTU21D;64295;44.772;39.872;2024-02-21T07:54:18;4.12;67.24
75683;HTU21D;64295;44.772;39.872;2024-02-21T07:56:45;4.17;67.15
75683;HTU21D;64295;44.772;39.872;2024-02-21T07:59:11;4.33;67.27
75683;HTU21D;64295;44.772;39.872;2024-02-21T08:01:38;4.53;66.71
75683;HTU21D;64295;44.772;39.872;2024-02-21T08:04:04;4.53;66.70
75683;HTU21D;64295;44.772;39.872;2024-02-21T08:06:30;4.49;66.81
75683;HTU21D;64295;44.772;39.872;2024-02-21T08:08:56;4.46;66.94
75683;HTU21D;64295;44.772;39.872;2024-02-21T08:11:22;4.31;67.14
75683;HTU21D;64295;44.772;39.872;2024-02-21T08:13:48;4.22;67.36
75683;HTU21D;64295;44.772;39.872;2024-02-21T08:16:14;4.12;67.55
75683;HTU21D;64295;44.772;39.872;2024-02-21T08:18:40;4.16;67.57
75683;HTU21D;64295;44.772;39.872;2024-02-21T08:21:09;4.19;67.44
75683;HTU21D;64295;44.772;39.872;2024-02-21T08:23:35;4.16;67.46
75683;HTU21D;64295;44.772;39.872;2024-02-21T08:26:04;4.16;67.40
75683;HTU21D;64295;44.772;39.872;2024-02-21T08:28:30;4.06;67.41
75683;HTU21D;64295;44.772;39.872;2024-02-21T08:30:56;3.94;67.72
75683;HTU21D;64295;44.772;39.872;2024-02-21T08:33:22;3.98;67.73
75683;HTU21D;64295;44.772;39.872;2024-02-21T08:35:51;4.04;67.57
75683;HTU21D;64295;44.772;39.872;2024-02-21T08:38:17;4.08;67.44
75683;HTU21D;64295;44.772;39.872;2024-02-21T08:40:44;4.09;67.33
75683;HTU21D;64295;44.772;39.872;2024-02-21T08:43:10;4.10;67.36
75683;HTU21D;64295;44.772;39.872;2024-02-21T08:45:36;4.17;67.31
75683;HTU21D;64295;44.772;39.872;2024-02-21T08:48:03;4.30;67.20
75683;HTU21D;64295;44.772;39.872;2024-02-21T08:50:29;4.38;66.89
75683;HTU21D;64295;44.772;39.872;2024-02-21T08:52:55;4.42;66.88
75683;HTU21D;64295;44.772;39.872;2024-02-21T08:55:21;4.41;66.85
75683;HTU21D;64295;44.772;39.872;2024-02-21T08:57:46;4.26;66.98
75683;HTU21D;64295;44.772;39.872;2024-02-21T09:00:13;4.02;67.33
75683;HTU21D;64295;44.772;39.872;2024-02-21T09:02:41;3.84;67.62
75683;HTU21D;64295;44.772;39.872;2024-02-21T09:05:09;3.83;67.94
75683;HTU21D;64295;44.772;39.872;2024-02-21T09:07:35;3.91;67.54
75683;HTU21D;64295;44.772;39.872;2024-02-21T09:10:01;3.86;67.43
75683;HTU21D;64295;44.772;39.872;2024-02-21T09:12:31;3.79;67.67
75683;HTU21D;64295;44.772;39.872;2024-02-21T09:14:57;3.82;67.49
75683;HTU21D;64295;44.772;39.872;2024-02-21T09:17:23;3.75;67.55
75683;HTU21D;64295;44.772;39.872;2024-02-21T09:19:50;3.76;67.59
75683;HTU21D;64295;44.772;39.872;2024-02-21T09:22:16;3.79;67.56
75683;HTU21D;64295;44.772;39.872;2024-02-21T09:24:44;3.87;67.38
75683;HTU21D;64295;44.772;39.872;2024-02-21T09:27:10;3.89;67.25
75683;HTU21D;64295;44.772;39.872;2024-02-21T09:29:36;3.88;67.30
75683;HTU21D;64295;44.772;39.872;2024-02-21T09:32:02;3.90;67.25
75683;HTU21D;64295;44.772;39.872;2024-02-21T09:34:30;3.97;67.19
75683;HTU21D;64295;44.772;39.872;2024-02-21T09:36:56;4.03;67.14
75683;HTU21D;64295;44.772;39.872;2024-02-21T09:39:22;4.16;66.97
75683;HTU21D;64295;44.772;39.872;2024-02-21T09:41:54;4.18;66.94
75683;HTU21D;64295;44.772;39.872;2024-02-21T09:44:24;4.21;66.94
75683;HTU21D;64295;44.772;39.872;2024-02-21T09:47:02;4.15;66.91
75683;HTU21D;64295;44.772;39.872;2024-02-21T09:49:31;4.17;67.11
75683;HTU21D;64295;44.772;39.872;2024-02-21T09:52:00;4.24;66.94
75683;HTU21D;64295;44.772;39.872;2024-02-21T09:54:29;4.31;66.88
75683;HTU21D;64295;44.772;39.872;2024-02-21T09:56:56;4.29;66.88
75683;HTU21D;64295;44.772;39.872;2024-02-21T09:59:23;4.39;66.88
75683;HTU21D;64295;44.772;39.872;2024-02-21T10:01:53;4.47;66.69
75683;HTU21D;64295;44.772;39.872;2024-02-21T10:04:20;4.32;66.75
75683;HTU21D;64295;44.772;39.872;2024-02-21T10:06:46;4.24;67.05
75683;HTU21D;64295;44.772;39.872;2024-02-21T10:09:25;4.24;67.08
75683;HTU21D;64295;44.772;39.872;2024-02-21T10:11:56;4.26;67.12
75683;HTU21D;64295;44.772;39.872;2024-02-21T10:14:32;4.38;67.01
75683;HTU21D;64295;44.772;39.872;2024-02-21T10:16:58;4.48;66.80
75683;HTU21D;64295;44.772;39.872;2024-02-21T10:19:26;4.51;66.85
75683;HTU21D;64295;44.772;39.872;2024-02-21T10:22:06;4.67;66.61
75683;HTU21D;64295;44.772;39.872;2024-02-21T10:24:34;4.76;66.43
75683;HTU21D;64295;44.772;39.872;2024-02-21T10:27:05;4.86;66.36
75683;HTU21D;64295;44.772;39.872;2024-02-21T10:29:35;4.90;66.21
75683;HTU21D;64295;44.772;39.872;2024-02-21T10:32:13;4.94;66.33
75683;HTU21D;64295;44.772;39.872;2024-02-21T10:34:41;5.06;66.27
75683;HTU21D;64295;44.772;39.872;2024-02-21T10:37:09;5.22;66.00
75683;HTU21D;64295;44.772;39.872;2024-02-21T10:39:38;5.33;65.85
75683;HTU21D;64295;44.772;39.872;2024-02-21T10:42:05;5.52;65.72
75683;HTU21D;64295;44.772;39.872;2024-02-21T10:44:33;5.65;65.41
75683;HTU21D;64295;44.772;39.872;2024-02-21T10:47:00;5.65;65.64
75683;HTU21D;64295;44.772;39.872;2024-02-21T10:49:27;5.65;65.61
75683;HTU21D;64295;44.772;39.872;2024-02-21T10:55:04;5.83;65.63
75683;HTU21D;64295;44.772;39.872;2024-02-21T10:57:35;6.04;65.12
75683;HTU21D;64295;44.772;39.872;2024-02-21T11:00:01;6.26;64.99
75683;HTU21D;64295;44.772;39.872;2024-02-21T11:02:29;6.38;64.73
75683;HTU21D;64295;44.772;39.872;2024-02-21T11:04:57;6.40;64.83
75683;HTU21D;64295;44.772;39.872;2024-02-21T11:07:24;6.34;65.10
75683;HTU21D;64295;44.772;39.872;2024-02-21T11:09:52;6.26;65.43
75683;HTU21D;64295;44.772;39.872;2024-02-21T11:12:22;6.22;65.69
75683;HTU21D;64295;44.772;39.872;2024-02-21T11:14:48;6.29;65.77
75683;HTU21D;64295;44.772;39.872;2024-02-21T11:17:18;6.39;65.62
75683;HTU21D;64295;44.772;39.872;2024-02-21T11:19:47;6.52;65.42
75683;HTU21D;64295;44.772;39.872;2024-02-21T11:22:19;6.44;65.30
75683;HTU21D;64295;44.772;39.872;2024-02-21T11:24:52;6.34;65.58
75683;HTU21D;64295;44.772;39.872;2024-02-21T11:27:20;6.35;65.73
75683;HTU21D;64295;44.772;39.872;2024-02-21T11:29:56;6.22;65.64
75683;HTU21D;64295;44.772;39.872;2024-02-21T11:32:22;6.10;66.01
75683;HTU21D;64295;44.772;39.872;2024-02-21T11:35:03;6.11;66.08
75683;HTU21D;64295;44.772;39.872;2024-02-21T11:37:32;6.13;66.06
75683;HTU21D;64295;44.772;39.872;2024-02-21T11:40:01;6.23;66.00
75683;HTU21D;64295;44.772;39.872;2024-02-21T11:42:28;6.46;65.72
75683;HTU21D;64295;44.772;39.872;2024-02-21T11:45:00;6.72;65.19
75683;HTU21D;64295;44.772;39.872;2024-02-21T11:47:27;6.83;64.95
75683;HTU21D;64295;44.772;39.872;2024-02-21T11:49:54;6.90;64.89
75683;HTU21D;64295;44.772;39.872;2024-02-21T11:52:25;6.96;64.91
75683;HTU21D;64295;44.772;39.872;2024-02-21T11:54:54;6.90;65.08
75683;HTU21D;64295;44.772;39.872;2024-02-21T11:57:22;6.85;65.29
75683;HTU21D;64295;44.772;39.872;2024-02-21T11:59:48;6.79;65.50
75683;HTU21D;64295;44.772;39.872;2024-02-21T12:02:18;6.83;65.58
75683;HTU21D;64295;44.772;39.872;2024-02-21T12:04:44;6.79;65.56
75683;HTU21D;64295;44.772;39.872;2024-02-21T12:07:17;6.93;65.43
75683;HTU21D;64295;44.772;39.872;2024-02-21T12:09:43;7.07;65.14
75683;HTU21D;64295;44.772;39.872;2024-02-21T12:12:11;7.32;64.92
75683;HTU21D;64295;44.772;39.872;2024-02-21T12:14:37;7.53;64.47
75683;HTU21D;64295;44.772;39.872;2024-02-21T12:17:04;7.67;64.37
75683;HTU21D;64295;44.772;39.872;2024-02-21T12:19:30;7.84;64.20
75683;HTU21D;64295;44.772;39.872;2024-02-21T12:22:00;7.98;64.11
75683;HTU21D;64295;44.772;39.872;2024-02-21T12:24:28;8.14;64.01
75683;HTU21D;64295;44.772;39.872;2024-02-21T12:26:55;8.28;63.82
75683;HTU21D;64295;44.772;39.872;2024-02-21T12:29:24;8.28;63.76
75683;HTU21D;64295;44.772;39.872;2024-02-21T12:31:51;8.19;64.14
75683;HTU21D;64295;44.772;39.872;2024-02-21T12:34:17;8.30;64.04
75683;HTU21D;64295;44.772;39.872;2024-02-21T12:36:44;8.30;64.05
75683;HTU21D;64295;44.772;39.872;2024-02-21T12:39:11;8.18;64.20
75683;HTU21D;64295;44.772;39.872;2024-02-21T12:41:37;8.12;64.30
75683;HTU21D;64295;44.772;39.872;2024-02-21T12:44:07;8.20;64.25
75683;HTU21D;64295;44.772;39.872;2024-02-21T12:46:34;8.31;64.17
75683;HTU21D;64295;44.772;39.872;2024-02-21T12:49:04;8.52;63.83
75683;HTU21D;64295;44.772;39.872;2024-02-21T12:51:31;8.52;63.84
75683;HTU21D;64295;44.772;39.872;2024-02-21T12:53:58;8.65;63.81
75683;HTU21D;64295;44.772;39.872;2024-02-21T12:56:26;8.74;63.65
75683;HTU21D;64295;44.772;39.872;2024-02-21T12:58:57;8.85;63.66
75683;HTU21D;64295;44.772;39.872;2024-02-21T13:01:23;8.92;63.63
75683;HTU21D;64295;44.772;39.872;2024-02-21T13:03:49;8.90;63.75
75683;HTU21D;64295;44.772;39.872;2024-02-21T13:06:15;9.06;63.72
75683;HTU21D;64295;44.772;39.872;2024-02-21T13:08:41;9.07;63.62
75683;HTU21D;64295;44.772;39.872;2024-02-21T13:11:07;9.09;63.69
75683;HTU21D;64295;44.772;39.872;2024-02-21T13:13:37;9.04;63.73
75683;HTU21D;64295;44.772;39.872;2024-02-21T13:16:04;9.06;63.90
75683;HTU21D;64295;44.772;39.872;2024-02-21T13:18:30;9.07;63.83
75683;HTU21D;64295;44.772;39.872;2024-02-21T13:20:58;9.04;64.01
75683;HTU21D;64295;44.772;39.872;2024-02-21T13:23:24;9.04;63.92
75683;HTU21D;64295;44.772;39.872;2024-02-21T13:25:49;9.03;64.05
75683;HTU21D;64295;44.772;39.872;2024-02-21T13:28:16;9.04;63.92
75683;HTU21D;64295;44.772;39.872;2024-02-21T13:30:43;9.00;63.94
75683;HTU21D;64295;44.772;39.872;2024-02-21T13:33:09;8.88;64.01
75683;HTU21D;64295;44.772;39.872;2024-02-21T13:35:35;8.83;64.20
75683;HTU21D;64295;44.772;39.872;2024-02-21T13:38:03;8.87;64.03
75683;HTU21D;64295;44.772;39.872;2024-02-21T13:40:29;8.91;63.92
75683;HTU21D;64295;44.772;39.872;2024-02-21T13:42:55;8.92;63.83
75683;HTU21D;64295;44.772;39.872;2024-02-21T13:45:21;8.87;63.92
75683;HTU21D;64295;44.772;39.872;2024-02-21T13:47:46;8.92;63.92
75683;HTU21D;64295;44.772;39.872;2024-02-21T13:50:14;8.91;63.91
75683;HTU21D;64295;44.772;39.872;2024-02-21T13:52:42;8.94;63.86
75683;HTU21D;64295;44.772;39.872;2024-02-21T13:55:08;8.80;63.97
75683;HTU21D;64295;44.772;39.872;2024-02-21T13:57:35;8.59;64.42
75683;HTU21D;64295;44.772;39.872;2024-02-21T14:00:02;8.42;64.66
75683;HTU21D;64295;44.772;39.872;2024-02-21T14:02:37;8.49;64.85
75683;HTU21D;64295;44.772;39.872;2024-02-21T14:05:05;8.49;64.68
75683;HTU21D;64295;44.772;39.872;2024-02-21T14:07:34;8.38;64.76
75683;HTU21D;64295;44.772;39.872;2024-02-21T14:10:01;8.28;64.86
75683;HTU21D;64295;44.772;39.872;2024-02-21T14:12:27;8.14;64.94
75683;HTU21D;64295;44.772;39.872;2024-02-21T14:14:53;8.07;65.08
75683;HTU21D;64295;44.772;39.872;2024-02-21T14:17:19;7.97;65.03
75683;HTU21D;64295;44.772;39.872;2024-02-21T14:19:45;7.84;65.16
75683;HTU21D;64295;44.772;39.872;2024-02-21T14:22:11;7.76;65.21
75683;HTU21D;64295;44.772;39.872;2024-02-21T14:24:37;7.74;65.11
75683;HTU21D;64295;44.772;39.872;2024-02-21T14:27:05;7.65;65.11
75683;HTU21D;64295;44.772;39.872;2024-02-21T14:29:31;7.73;65.24
75683;HTU21D;64295;44.772;39.872;2024-02-21T14:31:57;7.90;64.55
75683;HTU21D;64295;44.772;39.872;2024-02-21T14:34:24;7.84;64.55
75683;HTU21D;64295;44.772;39.872;2024-02-21T14:36:52;7.71;64.70
75683;HTU21D;64295;44.772;39.872;2024-02-21T14:39:21;7.54;64.85
75683;HTU21D;64295;44.772;39.872;2024-02-21T14:42:00;7.35;65.14
75683;HTU21D;64295;44.772;39.872;2024-02-21T14:44:26;7.25;65.19
75683;HTU21D;64295;44.772;39.872;2024-02-21T14:46:56;7.15;65.21
75683;HTU21D;64295;44.772;39.872;2024-02-21T14:49:21;7.05;65.26
75683;HTU21D;64295;44.772;39.872;2024-02-21T14:52:08;6.94;65.26
75683;HTU21D;64295;44.772;39.872;2024-02-21T14:54:35;6.85;65.31
75683;HTU21D;64295;44.772;39.872;2024-02-21T14:57:01;6.80;65.37
75683;HTU21D;64295;44.772;39.872;2024-02-21T14:59:28;6.78;65.24
75683;HTU21D;64295;44.772;39.872;2024-02-21T15:01:53;6.69;65.25
75683;HTU21D;64295;44.772;39.872;2024-02-21T15:04:19;6.65;65.33
75683;HTU21D;64295;44.772;39.872;2024-02-21T15:06:45;6.59;65.28
75683;HTU21D;64295;44.772;39.872;2024-02-21T15:09:11;6.49;65.32
75683;HTU21D;64295;44.772;39.872;2024-02-21T15:11:37;6.38;65.42
75683;HTU21D;64295;44.772;39.872;2024-02-21T15:14:21;6.30;65.39
75683;HTU21D;64295;44.772;39.872;2024-02-21T15:16:47;6.23;65.38
75683;HTU21D;64295;44.772;39.872;2024-02-21T15:19:13;6.15;65.43
75683;HTU21D;64295;44.772;39.872;2024-02-21T15:21:39;6.10;65.40
75683;HTU21D;64295;44.772;39.872;2024-02-21T15:24:05;6.04;65.45